sensor_id;sensor_type;location;lat;lon;timestamp;P1;durP1;ratioP1;P2;durP2;ratioP2
10711;SDS011;5407;51.234;6.804;2023-07-09T00:01:48;7.55;;;6.13;;
10711;SDS011;5407;51.234;6.804;2023-07-09T00:04:16;7.57;;;6.38;;
10711;SDS011;5407;51.234;6.804;2023-07-09T00:06:44;10.15;;;5.95;;
10711;SDS011;5407;51.234;6.804;2023-07-09T00:09:13;9.10;;;5.75;;
10711;SDS011;5407;51.234;6.804;2023-07-09T00:11:41;7.43;;;5.05;;
10711;SDS011;5407;51.234;6.804;2023-07-09T00:14:09;10.27;;;5.18;;
10711;SDS011;5407;51.234;6.804;2023-07-09T00:16:36;6.88;;;4.95;;
10711;SDS011;5407;51.234;6.804;2023-07-09T00:19:04;6.22;;;4.75;;
10711;SDS011;5407;51.234;6.804;2023-07-09T00:21:31;8.25;;;5.50;;
10711;SDS011;5407;51.234;6.804;2023-07-09T00:23:59;7.53;;;5.10;;
10711;SDS011;5407;51.234;6.804;2023-07-09T00:26:31;7.68;;;4.78;;
10711;SDS011;5407;51.234;6.804;2023-07-09T00:28:58;6.65;;;4.90;;
10711;SDS011;5407;51.234;6.804;2023-07-09T00:31:26;6.80;;;5.13;;
10711;SDS011;5407;51.234;6.804;2023-07-09T00:33:56;7.07;;;4.82;;
10711;SDS011;5407;51.234;6.804;2023-07-09T00:36:26;8.18;;;5.10;;
10711;SDS011;5407;51.234;6.804;2023-07-09T00:38:56;7.10;;;5.00;;
10711;SDS011;5407;51.234;6.804;2023-07-09T00:41:32;7.80;;;5.03;;
10711;SDS011;5407;51.234;6.804;2023-07-09T00:44:13;7.40;;;4.63;;
10711;SDS011;5407;51.234;6.804;2023-07-09T00:49:44;6.68;;;5.05;;
10711;SDS011;5407;51.234;6.804;2023-07-09T00:52:17;5.80;;;4.80;;
10711;SDS011;5407;51.234;6.804;2023-07-09T00:54:57;5.00;;;4.38;;
10711;SDS011;5407;51.234;6.804;2023-07-09T00:57:28;8.18;;;4.57;;
10711;SDS011;5407;51.234;6.804;2023-07-09T00:59:56;6.82;;;4.65;;
10711;SDS011;5407;51.234;6.804;2023-07-09T01:02:27;8.10;;;4.72;;
10711;SDS011;5407;51.234;6.804;2023-07-09T01:04:55;5.80;;;4.80;;
10711;SDS011;5407;51.234;6.804;2023-07-09T01:07:26;5.65;;;4.78;;
10711;SDS011;5407;51.234;6.804;2023-07-09T01:09:53;5.90;;;4.88;;
10711;SDS011;5407;51.234;6.804;2023-07-09T01:12:21;6.63;;;4.80;;
10711;SDS011;5407;51.234;6.804;2023-07-09T01:14:50;7.93;;;4.95;;
10711;SDS011;5407;51.234;6.804;2023-07-09T01:17:25;11.38;;;4.63;;
10711;SDS011;5407;51.234;6.804;2023-07-09T01:19:53;5.78;;;4.82;;
10711;SDS011;5407;51.234;6.804;2023-07-09T01:22:22;11.00;;;4.93;;
10711;SDS011;5407;51.234;6.804;2023-07-09T01:24:51;7.63;;;4.70;;
10711;SDS011;5407;51.234;6.804;2023-07-09T01:27:22;6.93;;;4.72;;
10711;SDS011;5407;51.234;6.804;2023-07-09T01:29:51;8.63;;;4.70;;
10711;SDS011;5407;51.234;6.804;2023-07-09T01:32:19;7.35;;;4.65;;
10711;SDS011;5407;51.234;6.804;2023-07-09T01:34:47;7.53;;;5.00;;
10711;SDS011;5407;51.234;6.804;2023-07-09T01:37:20;7.15;;;4.85;;
10711;SDS011;5407;51.234;6.804;2023-07-09T01:39:50;7.70;;;5.18;;
10711;SDS011;5407;51.234;6.804;2023-07-09T01:42:19;6.28;;;4.88;;
10711;SDS011;5407;51.234;6.804;2023-07-09T01:44:47;5.95;;;4.57;;
10711;SDS011;5407;51.234;6.804;2023-07-09T01:47:15;10.60;;;5.03;;
10711;SDS011;5407;51.234;6.804;2023-07-09T01:49:42;8.25;;;5.32;;
10711;SDS011;5407;51.234;6.804;2023-07-09T01:52:11;8.85;;;4.97;;
10711;SDS011;5407;51.234;6.804;2023-07-09T01:54:41;6.30;;;4.78;;
10711;SDS011;5407;51.234;6.804;2023-07-09T01:57:17;7.53;;;5.05;;
10711;SDS011;5407;51.234;6.804;2023-07-09T01:59:48;7.30;;;4.50;;
10711;SDS011;5407;51.234;6.804;2023-07-09T02:02:16;5.47;;;4.53;;
10711;SDS011;5407;51.234;6.804;2023-07-09T02:04:48;7.28;;;4.85;;
10711;SDS011;5407;51.234;6.804;2023-07-09T02:07:16;8.32;;;4.68;;
10711;SDS011;5407;51.234;6.804;2023-07-09T02:09:44;8.27;;;4.70;;
10711;SDS011;5407;51.234;6.804;2023-07-09T02:12:12;9.18;;;5.07;;
10711;SDS011;5407;51.234;6.804;2023-07-09T02:14:41;9.02;;;5.00;;
10711;SDS011;5407;51.234;6.804;2023-07-09T02:17:09;8.18;;;5.03;;
10711;SDS011;5407;51.234;6.804;2023-07-09T02:19:37;7.75;;;5.05;;
10711;SDS011;5407;51.234;6.804;2023-07-09T02:22:04;6.00;;;4.70;;
10711;SDS011;5407;51.234;6.804;2023-07-09T02:24:32;9.50;;;5.20;;
10711;SDS011;5407;51.234;6.804;2023-07-09T02:26:59;8.85;;;5.28;;
10711;SDS011;5407;51.234;6.804;2023-07-09T02:29:27;10.30;;;5.28;;
10711;SDS011;5407;51.234;6.804;2023-07-09T02:31:57;8.05;;;4.82;;
10711;SDS011;5407;51.234;6.804;2023-07-09T02:34:26;7.68;;;4.90;;
10711;SDS011;5407;51.234;6.804;2023-07-09T02:36:53;6.72;;;4.72;;
10711;SDS011;5407;51.234;6.804;2023-07-09T02:39:22;6.55;;;5.28;;
10711;SDS011;5407;51.234;6.804;2023-07-09T02:41:50;8.90;;;4.80;;
10711;SDS011;5407;51.234;6.804;2023-07-09T02:44:17;6.78;;;4.82;;
10711;SDS011;5407;51.234;6.804;2023-07-09T02:46:45;7.65;;;4.80;;
10711;SDS011;5407;51.234;6.804;2023-07-09T02:49:13;6.75;;;4.75;;
10711;SDS011;5407;51.234;6.804;2023-07-09T02:51:41;9.40;;;5.03;;
10711;SDS011;5407;51.234;6.804;2023-07-09T02:54:07;8.85;;;4.97;;
10711;SDS011;5407;51.234;6.804;2023-07-09T02:56:34;9.43;;;5.35;;
10711;SDS011;5407;51.234;6.804;2023-07-09T02:59:01;11.73;;;5.35;;
10711;SDS011;5407;51.234;6.804;2023-07-09T03:01:28;7.30;;;5.18;;
10711;SDS011;5407;51.234;6.804;2023-07-09T03:03:59;8.13;;;5.15;;
10711;SDS011;5407;51.234;6.804;2023-07-09T03:06:28;6.43;;;5.05;;
10711;SDS011;5407;51.234;6.804;2023-07-09T03:08:58;5.63;;;4.97;;
10711;SDS011;5407;51.234;6.804;2023-07-09T03:11:25;9.82;;;5.30;;
10711;SDS011;5407;51.234;6.804;2023-07-09T03:13:54;7.50;;;5.13;;
10711;SDS011;5407;51.234;6.804;2023-07-09T03:16:21;8.70;;;4.63;;
10711;SDS011;5407;51.234;6.804;2023-07-09T03:18:48;6.72;;;5.03;;
10711;SDS011;5407;51.234;6.804;2023-07-09T03:21:15;7.50;;;4.90;;
10711;SDS011;5407;51.234;6.804;2023-07-09T03:23:43;7.43;;;4.78;;
10711;SDS011;5407;51.234;6.804;2023-07-09T03:26:11;7.75;;;5.25;;
10711;SDS011;5407;51.234;6.804;2023-07-09T03:28:38;6.43;;;4.88;;
10711;SDS011;5407;51.234;6.804;2023-07-09T03:31:05;8.63;;;5.20;;
10711;SDS011;5407;51.234;6.804;2023-07-09T03:33:32;8.88;;;5.43;;
10711;SDS011;5407;51.234;6.804;2023-07-09T03:35:59;7.32;;;4.78;;
10711;SDS011;5407;51.234;6.804;2023-07-09T03:38:26;7.70;;;5.30;;
10711;SDS011;5407;51.234;6.804;2023-07-09T03:40:54;7.43;;;4.60;;
10711;SDS011;5407;51.234;6.804;2023-07-09T03:43:21;8.63;;;5.25;;
10711;SDS011;5407;51.234;6.804;2023-07-09T03:45:49;8.00;;;4.95;;
10711;SDS011;5407;51.234;6.804;2023-07-09T03:48:18;10.18;;;5.07;;
10711;SDS011;5407;51.234;6.804;2023-07-09T03:50:46;9.52;;;5.18;;
10711;SDS011;5407;51.234;6.804;2023-07-09T03:53:15;9.52;;;5.47;;
10711;SDS011;5407;51.234;6.804;2023-07-09T03:55:42;8.25;;;5.00;;
10711;SDS011;5407;51.234;6.804;2023-07-09T03:58:13;8.20;;;5.30;;
10711;SDS011;5407;51.234;6.804;2023-07-09T04:00:40;6.85;;;5.25;;
10711;SDS011;5407;51.234;6.804;2023-07-09T04:03:07;8.50;;;5.10;;
10711;SDS011;5407;51.234;6.804;2023-07-09T04:05:35;7.85;;;5.30;;
10711;SDS011;5407;51.234;6.804;2023-07-09T04:08:02;7.38;;;4.95;;
10711;SDS011;5407;51.234;6.804;2023-07-09T04:10:30;11.30;;;5.28;;
10711;SDS011;5407;51.234;6.804;2023-07-09T04:12:56;5.80;;;4.90;;
10711;SDS011;5407;51.234;6.804;2023-07-09T04:15:25;8.13;;;4.82;;
10711;SDS011;5407;51.234;6.804;2023-07-09T04:17:52;9.13;;;5.32;;
10711;SDS011;5407;51.234;6.804;2023-07-09T04:20:19;8.00;;;5.20;;
10711;SDS011;5407;51.234;6.804;2023-07-09T04:22:47;7.03;;;5.32;;
10711;SDS011;5407;51.234;6.804;2023-07-09T04:25:14;6.97;;;4.88;;
10711;SDS011;5407;51.234;6.804;2023-07-09T04:27:41;6.53;;;4.93;;
10711;SDS011;5407;51.234;6.804;2023-07-09T04:30:08;6.93;;;5.00;;
10711;SDS011;5407;51.234;6.804;2023-07-09T04:32:39;6.25;;;5.10;;
10711;SDS011;5407;51.234;6.804;2023-07-09T04:35:06;6.28;;;5.13;;
10711;SDS011;5407;51.234;6.804;2023-07-09T04:37:34;7.90;;;4.88;;
10711;SDS011;5407;51.234;6.804;2023-07-09T04:40:01;9.60;;;5.10;;
10711;SDS011;5407;51.234;6.804;2023-07-09T04:42:28;7.72;;;5.20;;
10711;SDS011;5407;51.234;6.804;2023-07-09T04:44:55;8.98;;;4.90;;
10711;SDS011;5407;51.234;6.804;2023-07-09T04:47:21;10.20;;;4.82;;
10711;SDS011;5407;51.234;6.804;2023-07-09T04:49:50;6.72;;;4.72;;
10711;SDS011;5407;51.234;6.804;2023-07-09T04:52:16;7.50;;;5.22;;
10711;SDS011;5407;51.234;6.804;2023-07-09T04:54:43;9.35;;;5.10;;
10711;SDS011;5407;51.234;6.804;2023-07-09T04:57:10;9.48;;;5.18;;
10711;SDS011;5407;51.234;6.804;2023-07-09T04:59:38;9.50;;;5.00;;
10711;SDS011;5407;51.234;6.804;2023-07-09T05:02:06;7.97;;;4.85;;
10711;SDS011;5407;51.234;6.804;2023-07-09T05:04:33;7.35;;;4.97;;
10711;SDS011;5407;51.234;6.804;2023-07-09T05:07:02;8.23;;;5.00;;
10711;SDS011;5407;51.234;6.804;2023-07-09T05:09:29;9.88;;;5.22;;
10711;SDS011;5407;51.234;6.804;2023-07-09T05:11:56;9.40;;;5.13;;
10711;SDS011;5407;51.234;6.804;2023-07-09T05:14:22;8.77;;;5.10;;
10711;SDS011;5407;51.234;6.804;2023-07-09T05:16:49;8.18;;;4.95;;
10711;SDS011;5407;51.234;6.804;2023-07-09T05:19:16;5.55;;;4.57;;
10711;SDS011;5407;51.234;6.804;2023-07-09T05:21:43;7.80;;;4.70;;
10711;SDS011;5407;51.234;6.804;2023-07-09T05:24:11;8.63;;;5.00;;
10711;SDS011;5407;51.234;6.804;2023-07-09T05:26:38;10.35;;;5.03;;
10711;SDS011;5407;51.234;6.804;2023-07-09T05:29:05;6.75;;;4.60;;
10711;SDS011;5407;51.234;6.804;2023-07-09T05:31:32;10.93;;;5.10;;
10711;SDS011;5407;51.234;6.804;2023-07-09T05:34:01;7.70;;;5.10;;
10711;SDS011;5407;51.234;6.804;2023-07-09T05:36:29;7.65;;;5.07;;
10711;SDS011;5407;51.234;6.804;2023-07-09T05:38:56;7.13;;;4.85;;
10711;SDS011;5407;51.234;6.804;2023-07-09T05:41:24;6.85;;;4.45;;
10711;SDS011;5407;51.234;6.804;2023-07-09T05:43:51;9.15;;;4.82;;
10711;SDS011;5407;51.234;6.804;2023-07-09T05:46:19;7.95;;;4.82;;
10711;SDS011;5407;51.234;6.804;2023-07-09T05:48:48;9.25;;;4.68;;
10711;SDS011;5407;51.234;6.804;2023-07-09T05:51:15;8.23;;;4.97;;
10711;SDS011;5407;51.234;6.804;2023-07-09T05:53:42;7.13;;;5.00;;
10711;SDS011;5407;51.234;6.804;2023-07-09T05:56:09;8.43;;;5.00;;
10711;SDS011;5407;51.234;6.804;2023-07-09T05:58:37;7.53;;;5.05;;
10711;SDS011;5407;51.234;6.804;2023-07-09T06:01:05;10.65;;;4.63;;
10711;SDS011;5407;51.234;6.804;2023-07-09T06:03:32;7.90;;;5.03;;
10711;SDS011;5407;51.234;6.804;2023-07-09T06:05:59;9.35;;;4.90;;
10711;SDS011;5407;51.234;6.804;2023-07-09T06:08:26;7.85;;;5.05;;
10711;SDS011;5407;51.234;6.804;2023-07-09T06:10:53;9.18;;;4.63;;
10711;SDS011;5407;51.234;6.804;2023-07-09T06:13:21;6.22;;;4.57;;
10711;SDS011;5407;51.234;6.804;2023-07-09T06:15:50;7.45;;;5.10;;
10711;SDS011;5407;51.234;6.804;2023-07-09T06:18:19;11.27;;;5.10;;
10711;SDS011;5407;51.234;6.804;2023-07-09T06:20:47;5.95;;;4.50;;
10711;SDS011;5407;51.234;6.804;2023-07-09T06:23:14;9.50;;;5.22;;
10711;SDS011;5407;51.234;6.804;2023-07-09T06:25:42;12.48;;;5.03;;
10711;SDS011;5407;51.234;6.804;2023-07-09T06:28:09;8.10;;;4.70;;
10711;SDS011;5407;51.234;6.804;2023-07-09T06:30:36;7.50;;;5.00;;
10711;SDS011;5407;51.234;6.804;2023-07-09T06:33:04;8.00;;;4.53;;
10711;SDS011;5407;51.234;6.804;2023-07-09T06:35:31;9.25;;;4.78;;
10711;SDS011;5407;51.234;6.804;2023-07-09T06:37:58;6.05;;;4.30;;
10711;SDS011;5407;51.234;6.804;2023-07-09T06:40:25;7.25;;;4.90;;
10711;SDS011;5407;51.234;6.804;2023-07-09T06:42:52;6.28;;;4.65;;
10711;SDS011;5407;51.234;6.804;2023-07-09T06:45:23;6.82;;;4.68;;
10711;SDS011;5407;51.234;6.804;2023-07-09T06:47:51;9.32;;;4.90;;
10711;SDS011;5407;51.234;6.804;2023-07-09T06:50:19;7.55;;;4.97;;
10711;SDS011;5407;51.234;6.804;2023-07-09T06:52:46;10.48;;;4.63;;
10711;SDS011;5407;51.234;6.804;2023-07-09T06:55:13;6.75;;;4.65;;
10711;SDS011;5407;51.234;6.804;2023-07-09T06:57:39;8.82;;;4.75;;
10711;SDS011;5407;51.234;6.804;2023-07-09T07:00:07;7.30;;;4.72;;
10711;SDS011;5407;51.234;6.804;2023-07-09T07:02:34;6.65;;;4.38;;
10711;SDS011;5407;51.234;6.804;2023-07-09T07:05:01;8.70;;;5.35;;
10711;SDS011;5407;51.234;6.804;2023-07-09T07:07:29;10.68;;;4.88;;
10711;SDS011;5407;51.234;6.804;2023-07-09T07:09:56;7.93;;;5.07;;
10711;SDS011;5407;51.234;6.804;2023-07-09T07:12:24;6.38;;;4.47;;
10711;SDS011;5407;51.234;6.804;2023-07-09T07:14:52;8.63;;;4.65;;
10711;SDS011;5407;51.234;6.804;2023-07-09T07:17:19;8.95;;;4.75;;
10711;SDS011;5407;51.234;6.804;2023-07-09T07:19:47;5.75;;;4.50;;
10711;SDS011;5407;51.234;6.804;2023-07-09T07:22:14;8.88;;;5.03;;
10711;SDS011;5407;51.234;6.804;2023-07-09T07:24:42;8.40;;;5.03;;
10711;SDS011;5407;51.234;6.804;2023-07-09T07:27:09;7.70;;;4.82;;
10711;SDS011;5407;51.234;6.804;2023-07-09T07:29:36;6.85;;;4.95;;
10711;SDS011;5407;51.234;6.804;2023-07-09T07:32:03;8.45;;;4.70;;
10711;SDS011;5407;51.234;6.804;2023-07-09T07:34:31;10.02;;;5.07;;
10711;SDS011;5407;51.234;6.804;2023-07-09T07:36:58;8.32;;;4.60;;
10711;SDS011;5407;51.234;6.804;2023-07-09T07:39:25;7.88;;;4.97;;
10711;SDS011;5407;51.234;6.804;2023-07-09T07:41:53;11.55;;;4.80;;
10711;SDS011;5407;51.234;6.804;2023-07-09T07:44:21;8.30;;;4.68;;
10711;SDS011;5407;51.234;6.804;2023-07-09T07:46:48;7.18;;;4.78;;
10711;SDS011;5407;51.234;6.804;2023-07-09T07:49:15;9.30;;;4.90;;
10711;SDS011;5407;51.234;6.804;2023-07-09T07:51:42;6.43;;;4.60;;
10711;SDS011;5407;51.234;6.804;2023-07-09T07:54:09;9.52;;;4.70;;
10711;SDS011;5407;51.234;6.804;2023-07-09T07:56:36;9.98;;;4.78;;
10711;SDS011;5407;51.234;6.804;2023-07-09T07:59:04;11.13;;;5.30;;
10711;SDS011;5407;51.234;6.804;2023-07-09T08:01:31;9.52;;;5.03;;
10711;SDS011;5407;51.234;6.804;2023-07-09T08:04:00;6.55;;;4.90;;
10711;SDS011;5407;51.234;6.804;2023-07-09T08:06:28;7.47;;;5.30;;
10711;SDS011;5407;51.234;6.804;2023-07-09T08:08:56;7.90;;;5.15;;
10711;SDS011;5407;51.234;6.804;2023-07-09T08:11:24;8.13;;;4.80;;
10711;SDS011;5407;51.234;6.804;2023-07-09T08:13:53;7.72;;;4.88;;
10711;SDS011;5407;51.234;6.804;2023-07-09T08:16:22;10.25;;;4.78;;
10711;SDS011;5407;51.234;6.804;2023-07-09T08:18:48;5.45;;;4.93;;
10711;SDS011;5407;51.234;6.804;2023-07-09T08:21:17;8.27;;;5.03;;
10711;SDS011;5407;51.234;6.804;2023-07-09T08:23:44;7.38;;;4.68;;
10711;SDS011;5407;51.234;6.804;2023-07-09T08:26:11;9.00;;;4.93;;
10711;SDS011;5407;51.234;6.804;2023-07-09T08:28:38;8.40;;;4.97;;
10711;SDS011;5407;51.234;6.804;2023-07-09T08:31:05;8.23;;;4.80;;
10711;SDS011;5407;51.234;6.804;2023-07-09T08:33:34;8.05;;;4.72;;
10711;SDS011;5407;51.234;6.804;2023-07-09T08:36:01;7.95;;;5.05;;
10711;SDS011;5407;51.234;6.804;2023-07-09T08:38:28;7.65;;;4.90;;
10711;SDS011;5407;51.234;6.804;2023-07-09T08:40:57;8.25;;;4.78;;
10711;SDS011;5407;51.234;6.804;2023-07-09T08:46:17;7.40;;;4.80;;
10711;SDS011;5407;51.234;6.804;2023-07-09T08:48:49;8.60;;;5.15;;
10711;SDS011;5407;51.234;6.804;2023-07-09T08:51:21;6.75;;;5.00;;
10711;SDS011;5407;51.234;6.804;2023-07-09T08:53:54;8.57;;;5.13;;
10711;SDS011;5407;51.234;6.804;2023-07-09T08:56:24;7.60;;;4.80;;
10711;SDS011;5407;51.234;6.804;2023-07-09T08:58:53;6.88;;;4.53;;
10711;SDS011;5407;51.234;6.804;2023-07-09T09:01:23;9.13;;;4.97;;
10711;SDS011;5407;51.234;6.804;2023-07-09T09:03:55;8.18;;;4.88;;
10711;SDS011;5407;51.234;6.804;2023-07-09T09:06:28;8.15;;;4.90;;
10711;SDS011;5407;51.234;6.804;2023-07-09T09:09:02;7.78;;;5.28;;
10711;SDS011;5407;51.234;6.804;2023-07-09T09:11:39;8.98;;;4.85;;
10711;SDS011;5407;51.234;6.804;2023-07-09T09:14:17;9.50;;;5.10;;
10711;SDS011;5407;51.234;6.804;2023-07-09T09:16:50;7.88;;;5.05;;
10711;SDS011;5407;51.234;6.804;2023-07-09T09:19:20;7.38;;;5.00;;
10711;SDS011;5407;51.234;6.804;2023-07-09T09:21:54;14.73;;;5.40;;
10711;SDS011;5407;51.234;6.804;2023-07-09T09:24:26;7.78;;;5.10;;
10711;SDS011;5407;51.234;6.804;2023-07-09T09:26:57;10.07;;;4.97;;
10711;SDS011;5407;51.234;6.804;2023-07-09T09:29:25;11.70;;;5.32;;
10711;SDS011;5407;51.234;6.804;2023-07-09T09:31:53;8.50;;;4.80;;
10711;SDS011;5407;51.234;6.804;2023-07-09T09:34:25;11.88;;;4.72;;
10711;SDS011;5407;51.234;6.804;2023-07-09T09:36:55;10.13;;;5.28;;
10711;SDS011;5407;51.234;6.804;2023-07-09T09:39:24;5.72;;;4.78;;
10711;SDS011;5407;51.234;6.804;2023-07-09T09:41:52;9.93;;;5.05;;
10711;SDS011;5407;51.234;6.804;2023-07-09T09:44:23;8.98;;;4.78;;
10711;SDS011;5407;51.234;6.804;2023-07-09T09:46:51;10.23;;;4.82;;
10711;SDS011;5407;51.234;6.804;2023-07-09T09:49:18;10.98;;;4.80;;
10711;SDS011;5407;51.234;6.804;2023-07-09T09:51:47;8.00;;;4.57;;
10711;SDS011;5407;51.234;6.804;2023-07-09T09:54:16;7.47;;;4.75;;
10711;SDS011;5407;51.234;6.804;2023-07-09T09:56:47;12.32;;;5.18;;
10711;SDS011;5407;51.234;6.804;2023-07-09T09:59:17;8.77;;;4.38;;
10711;SDS011;5407;51.234;6.804;2023-07-09T10:01:46;8.50;;;4.80;;
10711;SDS011;5407;51.234;6.804;2023-07-09T10:04:16;13.10;;;4.70;;
10711;SDS011;5407;51.234;6.804;2023-07-09T10:06:47;8.07;;;4.63;;
10711;SDS011;5407;51.234;6.804;2023-07-09T10:09:20;6.65;;;4.55;;
10711;SDS011;5407;51.234;6.804;2023-07-09T10:11:55;8.85;;;4.63;;
10711;SDS011;5407;51.234;6.804;2023-07-09T10:14:33;20.30;;;5.32;;
10711;SDS011;5407;51.234;6.804;2023-07-09T10:17:09;10.77;;;4.68;;
10711;SDS011;5407;51.234;6.804;2023-07-09T10:19:47;15.20;;;5.00;;
10711;SDS011;5407;51.234;6.804;2023-07-09T10:22:39;10.80;;;4.63;;
10711;SDS011;5407;51.234;6.804;2023-07-09T10:25:32;6.65;;;4.70;;
10711;SDS011;5407;51.234;6.804;2023-07-09T10:28:10;8.82;;;4.90;;
10711;SDS011;5407;51.234;6.804;2023-07-09T10:30:56;8.13;;;4.60;;
10711;SDS011;5407;51.234;6.804;2023-07-09T10:33:32;8.57;;;4.60;;
10711;SDS011;5407;51.234;6.804;2023-07-09T10:36:10;9.25;;;4.95;;
10711;SDS011;5407;51.234;6.804;2023-07-09T10:38:50;7.40;;;4.63;;
10711;SDS011;5407;51.234;6.804;2023-07-09T10:41:22;6.78;;;4.22;;
10711;SDS011;5407;51.234;6.804;2023-07-09T10:43:52;7.35;;;4.60;;
10711;SDS011;5407;51.234;6.804;2023-07-09T10:46:24;5.65;;;4.20;;
10711;SDS011;5407;51.234;6.804;2023-07-09T10:48:54;7.63;;;4.50;;
10711;SDS011;5407;51.234;6.804;2023-07-09T10:51:26;10.10;;;3.95;;
10711;SDS011;5407;51.234;6.804;2023-07-09T10:53:58;6.50;;;4.00;;
10711;SDS011;5407;51.234;6.804;2023-07-09T10:56:31;7.68;;;4.10;;
10711;SDS011;5407;51.234;6.804;2023-07-09T10:59:03;4.68;;;3.85;;
10711;SDS011;5407;51.234;6.804;2023-07-09T11:01:35;10.05;;;4.38;;
10711;SDS011;5407;51.234;6.804;2023-07-09T11:04:08;9.55;;;4.22;;
10711;SDS011;5407;51.234;6.804;2023-07-09T11:06:39;6.47;;;4.35;;
10711;SDS011;5407;51.234;6.804;2023-07-09T11:09:14;9.45;;;4.45;;
10711;SDS011;5407;51.234;6.804;2023-07-09T11:11:49;6.97;;;4.30;;
10711;SDS011;5407;51.234;6.804;2023-07-09T11:14:22;10.80;;;4.57;;
10711;SDS011;5407;51.234;6.804;2023-07-09T11:16:55;8.38;;;4.43;;
10711;SDS011;5407;51.234;6.804;2023-07-09T11:19:24;7.40;;;4.70;;
10711;SDS011;5407;51.234;6.804;2023-07-09T11:21:58;7.63;;;4.40;;
10711;SDS011;5407;51.234;6.804;2023-07-09T11:24:32;10.10;;;4.32;;
10711;SDS011;5407;51.234;6.804;2023-07-09T11:27:22;6.78;;;4.40;;
10711;SDS011;5407;51.234;6.804;2023-07-09T11:29:55;10.23;;;4.53;;
10711;SDS011;5407;51.234;6.804;2023-07-09T11:32:24;10.05;;;4.30;;
10711;SDS011;5407;51.234;6.804;2023-07-09T11:34:52;8.00;;;4.07;;
10711;SDS011;5407;51.234;6.804;2023-07-09T11:37:21;6.53;;;4.35;;
10711;SDS011;5407;51.234;6.804;2023-07-09T11:39:52;7.75;;;4.22;;
10711;SDS011;5407;51.234;6.804;2023-07-09T11:42:30;6.57;;;4.25;;
10711;SDS011;5407;51.234;6.804;2023-07-09T11:45:00;5.93;;;4.20;;
10711;SDS011;5407;51.234;6.804;2023-07-09T11:47:33;6.18;;;4.28;;
10711;SDS011;5407;51.234;6.804;2023-07-09T11:50:04;5.53;;;4.40;;
10711;SDS011;5407;51.234;6.804;2023-07-09T11:52:40;9.73;;;4.18;;
10711;SDS011;5407;51.234;6.804;2023-07-09T11:55:24;5.03;;;3.58;;
10711;SDS011;5407;51.234;6.804;2023-07-09T11:57:54;9.63;;;4.60;;
10711;SDS011;5407;51.234;6.804;2023-07-09T12:00:22;7.95;;;4.50;;
10711;SDS011;5407;51.234;6.804;2023-07-09T12:02:49;7.72;;;4.47;;
10711;SDS011;5407;51.234;6.804;2023-07-09T12:05:21;7.93;;;4.60;;
10711;SDS011;5407;51.234;6.804;2023-07-09T12:07:52;6.03;;;4.45;;
10711;SDS011;5407;51.234;6.804;2023-07-09T12:10:20;7.95;;;4.30;;
10711;SDS011;5407;51.234;6.804;2023-07-09T12:12:53;6.78;;;4.60;;
10711;SDS011;5407;51.234;6.804;2023-07-09T12:15:22;6.28;;;4.40;;
10711;SDS011;5407;51.234;6.804;2023-07-09T12:17:55;8.95;;;4.90;;
10711;SDS011;5407;51.234;6.804;2023-07-09T12:20:23;5.43;;;4.20;;
10711;SDS011;5407;51.234;6.804;2023-07-09T12:22:51;8.43;;;4.80;;
10711;SDS011;5407;51.234;6.804;2023-07-09T12:25:19;7.40;;;4.57;;
10711;SDS011;5407;51.234;6.804;2023-07-09T12:27:50;7.75;;;4.40;;
10711;SDS011;5407;51.234;6.804;2023-07-09T12:30:18;6.88;;;4.43;;
10711;SDS011;5407;51.234;6.804;2023-07-09T12:32:45;8.32;;;4.50;;
10711;SDS011;5407;51.234;6.804;2023-07-09T12:35:15;5.45;;;4.38;;
10711;SDS011;5407;51.234;6.804;2023-07-09T12:37:43;6.97;;;4.68;;
10711;SDS011;5407;51.234;6.804;2023-07-09T12:40:12;7.78;;;4.50;;
10711;SDS011;5407;51.234;6.804;2023-07-09T12:42:43;9.13;;;4.57;;
10711;SDS011;5407;51.234;6.804;2023-07-09T12:45:14;9.63;;;4.50;;
10711;SDS011;5407;51.234;6.804;2023-07-09T12:47:43;7.80;;;4.45;;
10711;SDS011;5407;51.234;6.804;2023-07-09T12:50:16;7.80;;;4.72;;
10711;SDS011;5407;51.234;6.804;2023-07-09T12:52:45;6.57;;;4.40;;
10711;SDS011;5407;51.234;6.804;2023-07-09T12:55:19;9.75;;;4.50;;
10711;SDS011;5407;51.234;6.804;2023-07-09T12:57:48;10.07;;;4.68;;
10711;SDS011;5407;51.234;6.804;2023-07-09T13:00:17;9.25;;;4.75;;
10711;SDS011;5407;51.234;6.804;2023-07-09T13:02:44;7.68;;;4.53;;
10711;SDS011;5407;51.234;6.804;2023-07-09T13:05:20;8.13;;;4.90;;
10711;SDS011;5407;51.234;6.804;2023-07-09T13:07:49;9.98;;;5.07;;
10711;SDS011;5407;51.234;6.804;2023-07-09T13:10:18;7.60;;;4.45;;
10711;SDS011;5407;51.234;6.804;2023-07-09T13:12:50;7.57;;;4.30;;
10711;SDS011;5407;51.234;6.804;2023-07-09T13:15:23;9.57;;;4.45;;
10711;SDS011;5407;51.234;6.804;2023-07-09T13:17:56;5.13;;;4.30;;
10711;SDS011;5407;51.234;6.804;2023-07-09T13:20:25;11.30;;;5.10;;
10711;SDS011;5407;51.234;6.804;2023-07-09T13:22:52;7.22;;;4.88;;
10711;SDS011;5407;51.234;6.804;2023-07-09T13:25:23;7.72;;;4.50;;
10711;SDS011;5407;51.234;6.804;2023-07-09T13:27:51;9.45;;;4.60;;
10711;SDS011;5407;51.234;6.804;2023-07-09T13:30:18;8.68;;;4.47;;
10711;SDS011;5407;51.234;6.804;2023-07-09T13:32:46;8.35;;;4.78;;
10711;SDS011;5407;51.234;6.804;2023-07-09T13:35:16;9.80;;;4.53;;
10711;SDS011;5407;51.234;6.804;2023-07-09T13:37:44;7.85;;;4.47;;
10711;SDS011;5407;51.234;6.804;2023-07-09T13:40:12;11.85;;;4.90;;
10711;SDS011;5407;51.234;6.804;2023-07-09T13:42:40;9.30;;;4.63;;
10711;SDS011;5407;51.234;6.804;2023-07-09T13:45:19;11.70;;;4.47;;
10711;SDS011;5407;51.234;6.804;2023-07-09T13:47:48;9.30;;;5.13;;
10711;SDS011;5407;51.234;6.804;2023-07-09T13:50:15;7.32;;;5.00;;
10711;SDS011;5407;51.234;6.804;2023-07-09T13:52:42;8.43;;;5.20;;
10711;SDS011;5407;51.234;6.804;2023-07-09T13:55:17;10.23;;;4.85;;
10711;SDS011;5407;51.234;6.804;2023-07-09T13:57:46;10.00;;;4.97;;
10711;SDS011;5407;51.234;6.804;2023-07-09T14:00:13;10.13;;;4.75;;
10711;SDS011;5407;51.234;6.804;2023-07-09T14:02:43;17.25;;;5.38;;
10711;SDS011;5407;51.234;6.804;2023-07-09T14:05:11;32.25;;;5.55;;
10711;SDS011;5407;51.234;6.804;2023-07-09T14:07:39;16.42;;;4.82;;
10711;SDS011;5407;51.234;6.804;2023-07-09T14:10:11;20.75;;;5.68;;
10711;SDS011;5407;51.234;6.804;2023-07-09T14:12:43;35.92;;;8.38;;
10711;SDS011;5407;51.234;6.804;2023-07-09T14:15:14;23.15;;;8.40;;
10711;SDS011;5407;51.234;6.804;2023-07-09T14:17:44;21.25;;;4.70;;
10711;SDS011;5407;51.234;6.804;2023-07-09T14:20:12;8.02;;;4.80;;
10711;SDS011;5407;51.234;6.804;2023-07-09T14:22:40;7.75;;;4.65;;
10711;SDS011;5407;51.234;6.804;2023-07-09T14:25:11;9.40;;;4.43;;
10711;SDS011;5407;51.234;6.804;2023-07-09T14:27:42;10.27;;;5.03;;
10711;SDS011;5407;51.234;6.804;2023-07-09T14:30:10;10.40;;;5.00;;
10711;SDS011;5407;51.234;6.804;2023-07-09T14:32:41;11.00;;;4.72;;
10711;SDS011;5407;51.234;6.804;2023-07-09T14:35:12;10.05;;;4.57;;
10711;SDS011;5407;51.234;6.804;2023-07-09T14:37:41;7.13;;;4.22;;
10711;SDS011;5407;51.234;6.804;2023-07-09T14:40:08;7.68;;;4.50;;
10711;SDS011;5407;51.234;6.804;2023-07-09T14:42:36;5.95;;;4.07;;
10711;SDS011;5407;51.234;6.804;2023-07-09T14:45:04;4.95;;;3.70;;
10711;SDS011;5407;51.234;6.804;2023-07-09T14:47:43;8.57;;;4.07;;
10711;SDS011;5407;51.234;6.804;2023-07-09T14:50:18;8.65;;;4.50;;
10711;SDS011;5407;51.234;6.804;2023-07-09T14:52:47;7.43;;;4.53;;
10711;SDS011;5407;51.234;6.804;2023-07-09T14:55:15;12.50;;;4.68;;
10711;SDS011;5407;51.234;6.804;2023-07-09T14:57:43;7.13;;;4.63;;
10711;SDS011;5407;51.234;6.804;2023-07-09T15:00:12;11.93;;;5.32;;
10711;SDS011;5407;51.234;6.804;2023-07-09T15:02:41;9.98;;;5.60;;
10711;SDS011;5407;51.234;6.804;2023-07-09T15:05:12;11.40;;;5.65;;
10711;SDS011;5407;51.234;6.804;2023-07-09T15:07:44;10.65;;;6.13;;
10711;SDS011;5407;51.234;6.804;2023-07-09T15:10:12;10.90;;;5.47;;
10711;SDS011;5407;51.234;6.804;2023-07-09T15:12:41;14.25;;;5.90;;
10711;SDS011;5407;51.234;6.804;2023-07-09T15:15:15;11.80;;;5.80;;
10711;SDS011;5407;51.234;6.804;2023-07-09T15:17:45;14.20;;;6.65;;